sensor_id;sensor_type;location;lat;lon;timestamp;pressure;altitude;pressure_sealevel;temperature;humidity
28354;BME280;15603;50.878;8.036;2023-03-03T00:01:48;143101.94;;;-0.71;100.00
28354;BME280;15603;50.878;8.036;2023-03-03T00:04:15;143097.09;;;-0.73;100.00
28354;BME280;15603;50.878;8.036;2023-03-03T00:06:44;143093.47;;;-0.74;100.00
28354;BME280;15603;50.878;8.036;2023-03-03T00:09:11;143099.50;;;-0.72;100.00
28354;BME280;15603;50.878;8.036;2023-03-03T00:11:38;143075.41;;;-0.82;100.00
28354;BME280;15603;50.878;8.036;2023-03-03T00:14:17;143066.97;;;-0.86;100.00
28354;BME280;15603;50.878;8.036;2023-03-03T00:16:46;143063.34;;;-0.87;100.00
28354;BME280;15603;50.878;8.036;2023-03-03T00:19:17;143051.31;;;-0.92;100.00
28354;BME280;15603;50.878;8.036;2023-03-03T00:21:47;142933.22;;;-1.43;100.00
28354;BME280;15603;50.878;8.036;2023-03-03T00:26:53;143039.25;;;-0.97;100.00
28354;BME280;15603;50.878;8.036;2023-03-03T00:32:03;143038.06;;;-0.98;100.00
28354;BME280;15603;50.878;8.036;2023-03-03T00:34:39;143001.91;;;-1.13;100.00
28354;BME280;15603;50.878;8.036;2023-03-03T00:42:40;142998.31;;;-1.15;100.00
28354;BME280;15603;50.878;8.036;2023-03-03T00:45:21;142989.84;;;-1.19;100.00
28354;BME280;15603;50.878;8.036;2023-03-03T00:47:49;142983.84;;;-1.21;100.00
28354;BME280;15603;50.878;8.036;2023-03-03T00:50:30;142986.25;;;-1.20;100.00
28354;BME280;15603;50.878;8.036;2023-03-03T00:53:01;142944.09;;;-1.38;100.00
28354;BME280;15603;50.878;8.036;2023-03-03T00:55:29;142981.41;;;-1.22;100.00
28354;BME280;15603;50.878;8.036;2023-03-03T00:57:57;142989.84;;;-1.19;100.00
28354;BME280;15603;50.878;8.036;2023-03-03T01:00:30;142956.09;;;-1.33;100.00
28354;BME280;15603;50.878;8.036;2023-03-03T01:03:03;142985.03;;;-1.21;100.00
28354;BME280;15603;50.878;8.036;2023-03-03T01:05:31;142991.06;;;-1.18;100.00
28354;BME280;15603;50.878;8.036;2023-03-03T01:07:59;142998.31;;;-1.15;100.00
28354;BME280;15603;50.878;8.036;2023-03-03T01:10:27;142986.25;;;-1.20;100.00
28354;BME280;15603;50.878;8.036;2023-03-03T01:12:56;142970.59;;;-1.27;100.00
28354;BME280;15603;50.878;8.036;2023-03-03T01:15:24;142966.97;;;-1.28;100.00
28354;BME280;15603;50.878;8.036;2023-03-03T01:17:51;142957.34;;;-1.32;100.00
28354;BME280;15603;50.878;8.036;2023-03-03T01:20:18;142983.84;;;-1.21;100.00
28354;BME280;15603;50.878;8.036;2023-03-03T01:22:45;142947.72;;;-1.36;100.00
28354;BME280;15603;50.878;8.036;2023-03-03T01:25:13;142954.91;;;-1.33;100.00
28354;BME280;15603;50.878;8.036;2023-03-03T01:27:40;142969.34;;;-1.27;100.00
28354;BME280;15603;50.878;8.036;2023-03-03T01:30:07;142871.84;;;-1.69;100.00
28354;BME280;15603;50.878;8.036;2023-03-03T01:32:36;142975.41;;;-1.25;100.00
28354;BME280;15603;50.878;8.036;2023-03-03T01:35:03;142992.25;;;-1.17;100.00
28354;BME280;15603;50.878;8.036;2023-03-03T01:37:30;142986.25;;;-1.20;100.00
28354;BME280;15603;50.878;8.036;2023-03-03T01:39:59;142981.41;;;-1.22;100.00
28354;BME280;15603;50.878;8.036;2023-03-03T01:42:26;142894.72;;;-1.59;100.00
28354;BME280;15603;50.878;8.036;2023-03-03T01:47:54;142942.91;;;-1.39;100.00
28354;BME280;15603;50.878;8.036;2023-03-03T01:50:35;142935.66;;;-1.42;100.00
28354;BME280;15603;50.878;8.036;2023-03-03T01:53:10;142950.09;;;-1.35;100.00
28354;BME280;15603;50.878;8.036;2023-03-03T01:55:40;142928.41;;;-1.45;100.00
28354;BME280;15603;50.878;8.036;2023-03-03T01:58:13;142942.91;;;-1.39;100.00
28354;BME280;15603;50.878;8.036;2023-03-03T02:00:43;142846.53;;;-1.80;100.00
28354;BME280;15603;50.878;8.036;2023-03-03T02:03:12;142870.63;;;-1.69;100.00
28354;BME280;15603;50.878;8.036;2023-03-03T02:05:40;142912.78;;;-1.51;100.00
28354;BME280;15603;50.878;8.036;2023-03-03T02:08:09;142882.66;;;-1.64;100.00
28354;BME280;15603;50.878;8.036;2023-03-03T02:10:38;142856.16;;;-1.75;100.00
28354;BME280;15603;50.878;8.036;2023-03-03T02:13:06;142894.72;;;-1.59;100.00
28354;BME280;15603;50.878;8.036;2023-03-03T02:28:29;142851.34;;;-1.78;100.00
28354;BME280;15603;50.878;8.036;2023-03-03T02:30:59;142876.66;;;-1.67;100.00
28354;BME280;15603;50.878;8.036;2023-03-03T02:33:27;142762.28;;;-2.15;100.00
28354;BME280;15603;50.878;8.036;2023-03-03T02:35:55;142848.97;;;-1.79;100.00
28354;BME280;15603;50.878;8.036;2023-03-03T02:38:39;142834.50;;;-1.85;100.00
28354;BME280;15603;50.878;8.036;2023-03-03T02:44:10;142815.22;;;-1.93;100.00
28354;BME280;15603;50.878;8.036;2023-03-03T02:46:40;142808.03;;;-1.96;100.00
28354;BME280;15603;50.878;8.036;2023-03-03T02:49:09;142801.97;;;-1.99;100.00
28354;BME280;15603;50.878;8.036;2023-03-03T02:51:37;142803.22;;;-1.98;100.00
28354;BME280;15603;50.878;8.036;2023-03-03T02:54:05;142797.16;;;-2.01;100.00
28354;BME280;15603;50.878;8.036;2023-03-03T02:56:33;142774.28;;;-2.10;100.00
28354;BME280;15603;50.878;8.036;2023-03-03T02:59:01;142794.78;;;-2.02;100.00
28354;BME280;15603;50.878;8.036;2023-03-03T03:01:32;142801.97;;;-1.99;100.00
28354;BME280;15603;50.878;8.036;2023-03-03T03:04:16;142776.72;;;-2.09;100.00
28354;BME280;15603;50.878;8.036;2023-03-03T03:06:47;142733.38;;;-2.28;100.00
28354;BME280;15603;50.878;8.036;2023-03-03T03:09:17;142788.72;;;-2.04;100.00
28354;BME280;15603;50.878;8.036;2023-03-03T03:11:46;142726.16;;;-2.31;100.00
28354;BME280;15603;50.878;8.036;2023-03-03T03:14:16;142759.84;;;-2.17;100.00
28354;BME280;15603;50.878;8.036;2023-03-03T03:16:43;142757.44;;;-2.18;100.00
28354;BME280;15603;50.878;8.036;2023-03-03T03:19:10;142709.31;;;-2.38;100.00
28354;BME280;15603;50.878;8.036;2023-03-03T03:21:39;142757.44;;;-2.18;100.00
28354;BME280;15603;50.878;8.036;2023-03-03T03:24:07;142747.81;;;-2.22;100.00
28354;BME280;15603;50.878;8.036;2023-03-03T03:26:36;142741.81;;;-2.24;100.00
28354;BME280;15603;50.878;8.036;2023-03-03T03:29:03;142706.88;;;-2.39;100.00
28354;BME280;15603;50.878;8.036;2023-03-03T03:31:31;142732.19;;;-2.28;100.00
28354;BME280;15603;50.878;8.036;2023-03-03T03:33:59;142726.16;;;-2.31;100.00
28354;BME280;15603;50.878;8.036;2023-03-03T03:36:28;142664.78;;;-2.57;100.00
28354;BME280;15603;50.878;8.036;2023-03-03T03:38:55;142721.31;;;-2.33;100.00
28354;BME280;15603;50.878;8.036;2023-03-03T03:41:22;142708.13;;;-2.39;100.00
28354;BME280;15603;50.878;8.036;2023-03-03T03:43:49;142709.31;;;-2.38;100.00
28354;BME280;15603;50.878;8.036;2023-03-03T03:46:16;142682.84;;;-2.49;100.00
28354;BME280;15603;50.878;8.036;2023-03-03T03:48:44;142635.91;;;-2.69;100.00
28354;BME280;15603;50.878;8.036;2023-03-03T03:51:12;142693.66;;;-2.45;100.00
28354;BME280;15603;50.878;8.036;2023-03-03T03:53:40;142690.06;;;-2.46;100.00
28354;BME280;15603;50.878;8.036;2023-03-03T03:56:07;142692.44;;;-2.45;100.00
28354;BME280;15603;50.878;8.036;2023-03-03T03:58:34;142658.78;;;-2.60;100.00
28354;BME280;15603;50.878;8.036;2023-03-03T04:01:07;142678.03;;;-2.51;100.00
28354;BME280;15603;50.878;8.036;2023-03-03T04:03:39;142670.78;;;-2.54;100.00
28354;BME280;15603;50.878;8.036;2023-03-03T04:06:10;142582.97;;;-2.92;100.00
28354;BME280;15603;50.878;8.036;2023-03-03T04:08:37;142647.91;;;-2.64;100.00
28354;BME280;15603;50.878;8.036;2023-03-03T04:11:04;142620.25;;;-2.76;100.00
28354;BME280;15603;50.878;8.036;2023-03-03T04:13:31;142646.72;;;-2.65;100.00
28354;BME280;15603;50.878;8.036;2023-03-03T04:16:01;142649.13;;;-2.64;100.00
28354;BME280;15603;50.878;8.036;2023-03-03T04:18:28;142649.13;;;-2.64;100.00
28354;BME280;15603;50.878;8.036;2023-03-03T04:20:56;142663.59;;;-2.58;100.00
28354;BME280;15603;50.878;8.036;2023-03-03T04:23:24;142658.78;;;-2.60;100.00
28354;BME280;15603;50.878;8.036;2023-03-03T04:25:52;142664.78;;;-2.57;100.00
28354;BME280;15603;50.878;8.036;2023-03-03T04:28:42;142668.41;;;-2.55;100.00
28354;BME280;15603;50.878;8.036;2023-03-03T04:31:10;142669.59;;;-2.55;100.00
28354;BME280;15603;50.878;8.036;2023-03-03T04:33:37;142650.34;;;-2.63;100.00
28354;BME280;15603;50.878;8.036;2023-03-03T04:36:05;142644.31;;;-2.66;100.00
28354;BME280;15603;50.878;8.036;2023-03-03T04:38:32;142639.50;;;-2.68;100.00
28354;BME280;15603;50.878;8.036;2023-03-03T04:40:59;142628.69;;;-2.72;100.00
28354;BME280;15603;50.878;8.036;2023-03-03T04:43:30;142615.44;;;-2.78;100.00
28354;BME280;15603;50.878;8.036;2023-03-03T04:45:58;142594.97;;;-2.87;100.00
28354;BME280;15603;50.878;8.036;2023-03-03T04:48:25;142572.13;;;-2.97;100.00
28354;BME280;15603;50.878;8.036;2023-03-03T04:50:52;142550.50;;;-3.06;100.00
28354;BME280;15603;50.878;8.036;2023-03-03T04:53:19;142544.47;;;-3.08;100.00
28354;BME280;15603;50.878;8.036;2023-03-03T04:55:49;142568.53;;;-2.98;100.00
28354;BME280;15603;50.878;8.036;2023-03-03T04:58:17;142627.50;;;-2.73;100.00
28354;BME280;15603;50.878;8.036;2023-03-03T05:00:46;142536.03;;;-3.12;100.00
28354;BME280;15603;50.878;8.036;2023-03-03T05:03:13;142560.13;;;-3.02;100.00
28354;BME280;15603;50.878;8.036;2023-03-03T05:05:41;142480.72;;;-3.36;100.00
28354;BME280;15603;50.878;8.036;2023-03-03T05:08:08;142576.94;;;-2.94;100.00
28354;BME280;15603;50.878;8.036;2023-03-03T05:10:35;142581.78;;;-2.92;100.00
28354;BME280;15603;50.878;8.036;2023-03-03T05:13:02;142579.34;;;-2.93;100.00
28354;BME280;15603;50.878;8.036;2023-03-03T05:15:31;142579.34;;;-2.93;100.00
28354;BME280;15603;50.878;8.036;2023-03-03T05:17:58;142567.31;;;-2.99;100.00
28354;BME280;15603;50.878;8.036;2023-03-03T05:20:25;142544.47;;;-3.08;100.00
28354;BME280;15603;50.878;8.036;2023-03-03T05:22:52;142540.84;;;-3.10;100.00
28354;BME280;15603;50.878;8.036;2023-03-03T05:25:20;142528.84;;;-3.15;100.00
28354;BME280;15603;50.878;8.036;2023-03-03T05:27:47;142525.22;;;-3.17;100.00
28354;BME280;15603;50.878;8.036;2023-03-03T05:30:14;142507.19;;;-3.24;100.00
28354;BME280;15603;50.878;8.036;2023-03-03T05:32:42;142544.47;;;-3.08;100.00
28354;BME280;15603;50.878;8.036;2023-03-03T05:35:09;142508.38;;;-3.24;100.00
28354;BME280;15603;50.878;8.036;2023-03-03T05:37:36;142543.28;;;-3.09;100.00
28354;BME280;15603;50.878;8.036;2023-03-03T05:40:06;142544.47;;;-3.08;100.00
28354;BME280;15603;50.878;8.036;2023-03-03T05:42:33;142504.75;;;-3.25;100.00
28354;BME280;15603;50.878;8.036;2023-03-03T05:45:00;142491.56;;;-3.31;100.00
28354;BME280;15603;50.878;8.036;2023-03-03T05:47:28;142486.72;;;-3.33;100.00
28354;BME280;15603;50.878;8.036;2023-03-03T05:49:55;142487.97;;;-3.32;100.00
28354;BME280;15603;50.878;8.036;2023-03-03T05:52:22;142451.88;;;-3.48;100.00
28354;BME280;15603;50.878;8.036;2023-03-03T05:54:50;142518.00;;;-3.20;100.00
28354;BME280;15603;50.878;8.036;2023-03-03T05:57:17;142530.03;;;-3.14;100.00
28354;BME280;15603;50.878;8.036;2023-03-03T05:59:44;142576.94;;;-2.94;100.00
28354;BME280;15603;50.878;8.036;2023-03-03T06:02:11;142516.81;;;-3.20;100.00
28354;BME280;15603;50.878;8.036;2023-03-03T06:04:38;142596.22;;;-2.86;100.00
28354;BME280;15603;50.878;8.036;2023-03-03T06:07:05;142590.16;;;-2.89;100.00
28354;BME280;15603;50.878;8.036;2023-03-03T06:09:32;142603.41;;;-2.83;100.00
28354;BME280;15603;50.878;8.036;2023-03-03T06:11:59;142497.56;;;-3.28;100.00
28354;BME280;15603;50.878;8.036;2023-03-03T06:14:27;142646.72;;;-2.65;100.00
28354;BME280;15603;50.878;8.036;2023-03-03T06:16:54;142588.97;;;-2.89;100.00
28354;BME280;15603;50.878;8.036;2023-03-03T06:19:21;142581.78;;;-2.92;100.00
28354;BME280;15603;50.878;8.036;2023-03-03T06:21:48;142531.22;;;-3.14;100.00
28354;BME280;15603;50.878;8.036;2023-03-03T06:24:15;142610.63;;;-2.80;100.00
28354;BME280;15603;50.878;8.036;2023-03-03T06:26:42;142567.31;;;-2.99;100.00
28354;BME280;15603;50.878;8.036;2023-03-03T06:29:09;142569.75;;;-2.98;100.00
28354;BME280;15603;50.878;8.036;2023-03-03T06:31:37;142605.81;;;-2.82;100.00
28354;BME280;15603;50.878;8.036;2023-03-03T06:34:04;142620.25;;;-2.76;100.00
28354;BME280;15603;50.878;8.036;2023-03-03T06:36:31;142633.50;;;-2.70;100.00
28354;BME280;15603;50.878;8.036;2023-03-03T06:38:58;142649.13;;;-2.64;100.00
28354;BME280;15603;50.878;8.036;2023-03-03T06:41:25;142675.59;;;-2.52;100.00
28354;BME280;15603;50.878;8.036;2023-03-03T06:48:06;142715.31;;;-2.35;100.00
28354;BME280;15603;50.878;8.036;2023-03-03T06:50:33;142740.59;;;-2.25;100.00
28354;BME280;15603;50.878;8.036;2023-03-03T06:53:14;142750.22;;;-2.21;100.00
28354;BME280;15603;50.878;8.036;2023-03-03T06:55:42;142755.03;;;-2.19;100.00
28354;BME280;15603;50.878;8.036;2023-03-03T06:58:16;142727.38;;;-2.30;100.00
28354;BME280;15603;50.878;8.036;2023-03-03T07:00:55;142702.06;;;-2.41;100.00
28354;BME280;15603;50.878;8.036;2023-03-03T07:03:25;142753.84;;;-2.19;100.00
28354;BME280;15603;50.878;8.036;2023-03-03T07:05:56;142782.72;;;-2.07;100.00
28354;BME280;15603;50.878;8.036;2023-03-03T07:08:23;142816.47;;;-1.92;100.00
28354;BME280;15603;50.878;8.036;2023-03-03T07:10:51;142853.78;;;-1.76;100.00
28354;BME280;15603;50.878;8.036;2023-03-03T07:13:20;142898.34;;;-1.58;100.00
28354;BME280;15603;50.878;8.036;2023-03-03T07:15:49;142945.28;;;-1.38;100.00
28354;BME280;15603;50.878;8.036;2023-03-03T07:20:47;143029.63;;;-1.02;100.00
28354;BME280;15603;50.878;8.036;2023-03-03T07:23:22;143022.38;;;-1.05;100.00
28354;BME280;15603;50.878;8.036;2023-03-03T07:25:50;142983.84;;;-1.21;100.00
28354;BME280;15603;50.878;8.036;2023-03-03T07:28:27;143038.06;;;-0.98;100.00
28354;BME280;15603;50.878;8.036;2023-03-03T07:30:56;143056.13;;;-0.90;100.00
28354;BME280;15603;50.878;8.036;2023-03-03T07:35:57;143107.94;;;-0.68;100.00
28354;BME280;15603;50.878;8.036;2023-03-03T07:41:00;143174.25;;;-0.40;100.00
28354;BME280;15603;50.878;8.036;2023-03-03T07:43:30;143207.97;;;-0.26;100.00
28354;BME280;15603;50.878;8.036;2023-03-03T07:46:25;143230.88;;;-0.16;100.00
28354;BME280;15603;50.878;8.036;2023-03-03T07:48:55;143292.41;;;0.10;100.00
28354;BME280;15603;50.878;8.036;2023-03-03T07:54:13;143326.13;;;0.25;100.00
28354;BME280;15603;50.878;8.036;2023-03-03T07:56:42;143352.69;;;0.36;100.00
28354;BME280;15603;50.878;8.036;2023-03-03T07:59:21;143403.34;;;0.57;100.00
28354;BME280;15603;50.878;8.036;2023-03-03T08:01:55;143431.06;;;0.69;99.93
28354;BME280;15603;50.878;8.036;2023-03-03T08:06:58;143499.91;;;0.98;98.31
28354;BME280;15603;50.878;8.036;2023-03-03T08:09:36;143473.34;;;0.87;97.63
28354;BME280;15603;50.878;8.036;2023-03-03T08:12:19;143554.19;;;1.22;97.48
28354;BME280;15603;50.878;8.036;2023-03-03T08:14:50;143542.13;;;1.16;97.11
28354;BME280;15603;50.878;8.036;2023-03-03T08:17:26;143559.03;;;1.24;97.63
28354;BME280;15603;50.878;8.036;2023-03-03T08:19:56;143594.00;;;1.38;97.03
28354;BME280;15603;50.878;8.036;2023-03-03T08:22:30;143613.34;;;1.47;96.07
28354;BME280;15603;50.878;8.036;2023-03-03T08:24:58;143635.09;;;1.56;96.51
28354;BME280;15603;50.878;8.036;2023-03-03T08:27:25;143620.56;;;1.50;96.79
28354;BME280;15603;50.878;8.036;2023-03-03T08:29:52;143654.41;;;1.64;96.16
28354;BME280;15603;50.878;8.036;2023-03-03T08:32:19;143672.50;;;1.72;95.72
28354;BME280;15603;50.878;8.036;2023-03-03T08:34:47;143709.94;;;1.88;94.36
28354;BME280;15603;50.878;8.036;2023-03-03T08:37:14;143755.81;;;2.07;93.65
28354;BME280;15603;50.878;8.036;2023-03-03T08:39:41;143761.88;;;2.10;92.57
28354;BME280;15603;50.878;8.036;2023-03-03T08:42:08;143798.13;;;2.25;91.95
28354;BME280;15603;50.878;8.036;2023-03-03T08:44:35;143799.31;;;2.26;91.42
28354;BME280;15603;50.878;8.036;2023-03-03T08:47:02;143842.78;;;2.44;91.61
28354;BME280;15603;50.878;8.036;2023-03-03T08:49:29;143792.06;;;2.23;91.82
28354;BME280;15603;50.878;8.036;2023-03-03T08:51:56;143840.38;;;2.43;92.06
28354;BME280;15603;50.878;8.036;2023-03-03T08:54:24;143876.63;;;2.59;90.69
28354;BME280;15603;50.878;8.036;2023-03-03T08:56:51;143868.16;;;2.55;90.90
28354;BME280;15603;50.878;8.036;2023-03-03T08:59:18;143709.94;;;1.88;90.57
28354;BME280;15603;50.878;8.036;2023-03-03T09:01:46;143927.38;;;2.80;90.16
28354;BME280;15603;50.878;8.036;2023-03-03T09:04:13;143949.13;;;2.89;89.25
28354;BME280;15603;50.878;8.036;2023-03-03T09:06:40;143980.56;;;3.03;88.38
28354;BME280;15603;50.878;8.036;2023-03-03T09:09:07;143966.06;;;2.97;87.66
28354;BME280;15603;50.878;8.036;2023-03-03T09:11:34;144019.22;;;3.19;87.34
28354;BME280;15603;50.878;8.036;2023-03-03T09:14:09;144018.03;;;3.19;87.42
28354;BME280;15603;50.878;8.036;2023-03-03T09:16:39;143990.25;;;3.07;87.26
28354;BME280;15603;50.878;8.036;2023-03-03T09:19:26;144080.91;;;3.45;86.70
28354;BME280;15603;50.878;8.036;2023-03-03T09:21:56;144088.19;;;3.48;86.09
28354;BME280;15603;50.878;8.036;2023-03-03T09:24:28;144077.28;;;3.44;86.24
28354;BME280;15603;50.878;8.036;2023-03-03T09:26:58;144079.72;;;3.45;86.00
28354;BME280;15603;50.878;8.036;2023-03-03T09:29:30;144122.00;;;3.63;84.89
28354;BME280;15603;50.878;8.036;2023-03-03T09:32:33;144155.84;;;3.77;84.38
28354;BME280;15603;50.878;8.036;2023-03-03T09:37:57;144181.28;;;3.88;84.08
28354;BME280;15603;50.878;8.036;2023-03-03T09:44:29;144226.03;;;4.07;83.01
28354;BME280;15603;50.878;8.036;2023-03-03T09:55:26;144125.66;;;3.64;82.54
28354;BME280;15603;50.878;8.036;2023-03-03T10:01:06;144230.88;;;4.09;80.70
28354;BME280;15603;50.878;8.036;2023-03-03T10:06:27;144304.66;;;4.40;81.17
28354;BME280;15603;50.878;8.036;2023-03-03T10:11:49;144396.66;;;4.79;79.88
28354;BME280;15603;50.878;8.036;2023-03-03T10:14:45;144393.03;;;4.78;79.26
28354;BME280;15603;50.878;8.036;2023-03-03T10:22:47;144394.22;;;4.78;77.86
28354;BME280;15603;50.878;8.036;2023-03-03T10:25:41;144435.38;;;4.96;77.46
28354;BME280;15603;50.878;8.036;2023-03-03T10:34:13;144449.88;;;5.02;75.04
28354;BME280;15603;50.878;8.036;2023-03-03T10:44:55;144573.38;;;5.54;72.44
28354;BME280;15603;50.878;8.036;2023-03-03T10:53:59;144619.44;;;5.74;71.77
28354;BME280;15603;50.878;8.036;2023-03-03T11:02:02;144643.66;;;5.84;70.59
28354;BME280;15603;50.878;8.036;2023-03-03T11:07:53;144670.34;;;5.95;70.82
28354;BME280;15603;50.878;8.036;2023-03-03T11:16:03;144704.25;;;6.09;69.62
28354;BME280;15603;50.878;8.036;2023-03-03T11:18:51;144677.59;;;5.98;68.49
28354;BME280;15603;50.878;8.036;2023-03-03T11:21:59;144728.50;;;6.20;69.23
28354;BME280;15603;50.878;8.036;2023-03-03T11:24:32;144728.50;;;6.20;67.46
28354;BME280;15603;50.878;8.036;2023-03-03T11:27:15;144711.53;;;6.13;67.53
28354;BME280;15603;50.878;8.036;2023-03-03T11:40:17;144796.31;;;6.48;65.82
28354;BME280;15603;50.878;8.036;2023-03-03T11:45:54;144820.59;;;6.59;65.09
28354;BME280;15603;50.878;8.036;2023-03-03T11:48:39;144808.47;;;6.54;64.13
28354;BME280;15603;50.878;8.036;2023-03-03T11:53:53;144810.91;;;6.55;63.64
28354;BME280;15603;50.878;8.036;2023-03-03T11:56:26;144839.97;;;6.67;64.23
28354;BME280;15603;50.878;8.036;2023-03-03T12:04:53;144916.34;;;6.99;61.62
28354;BME280;15603;50.878;8.036;2023-03-03T12:07:49;144852.13;;;6.72;62.48
28354;BME280;15603;50.878;8.036;2023-03-03T12:13:08;144944.22;;;7.11;61.74
28354;BME280;15603;50.878;8.036;2023-03-03T12:15:51;144946.69;;;7.12;60.27
28354;BME280;15603;50.878;8.036;2023-03-03T12:21:21;144979.41;;;7.26;61.02
28354;BME280;15603;50.878;8.036;2023-03-03T12:26:41;144989.09;;;7.30;59.56
28354;BME280;15603;50.878;8.036;2023-03-03T12:29:26;145017.00;;;7.42;60.13
28354;BME280;15603;50.878;8.036;2023-03-03T12:34:53;145031.53;;;7.48;58.24
28354;BME280;15603;50.878;8.036;2023-03-03T12:43:34;145070.38;;;7.64;57.17
28354;BME280;15603;50.878;8.036;2023-03-03T12:48:46;145076.41;;;7.67;56.83
28354;BME280;15603;50.878;8.036;2023-03-03T12:57:20;145117.66;;;7.84;56.36
28354;BME280;15603;50.878;8.036;2023-03-03T13:00:10;145117.66;;;7.84;56.20
28354;BME280;15603;50.878;8.036;2023-03-03T13:28:13;145058.22;;;7.59;54.95
28354;BME280;15603;50.878;8.036;2023-03-03T13:30:47;145188.03;;;8.14;55.47
28354;BME280;15603;50.878;8.036;2023-03-03T13:53:38;145223.19;;;8.29;54.19
28354;BME280;15603;50.878;8.036;2023-03-03T14:01:31;145240.19;;;8.36;52.83
28354;BME280;15603;50.878;8.036;2023-03-03T14:04:09;145194.09;;;8.17;54.58
28354;BME280;15603;50.878;8.036;2023-03-03T14:06:44;145245.06;;;8.38;53.18
28354;BME280;15603;50.878;8.036;2023-03-03T14:09:47;145217.16;;;8.26;52.45
28354;BME280;15603;50.878;8.036;2023-03-03T14:12:41;145230.50;;;8.32;53.28
28354;BME280;15603;50.878;8.036;2023-03-03T14:15:21;145248.69;;;8.40;52.95
28354;BME280;15603;50.878;8.036;2023-03-03T14:21:08;145161.34;;;8.03;53.78
28354;BME280;15603;50.878;8.036;2023-03-03T14:23:47;145237.81;;;8.35;53.45
28354;BME280;15603;50.878;8.036;2023-03-03T14:26:16;145248.69;;;8.40;55.88
28354;BME280;15603;50.878;8.036;2023-03-03T14:28:45;145259.66;;;8.44;57.09
28354;BME280;15603;50.878;8.036;2023-03-03T14:33:45;145265.75;;;8.47;56.76
28354;BME280;15603;50.878;8.036;2023-03-03T14:36:35;145257.25;;;8.43;58.84
28354;BME280;15603;50.878;8.036;2023-03-03T14:41:50;145254.78;;;8.42;59.57
28354;BME280;15603;50.878;8.036;2023-03-03T14:44:35;145246.25;;;8.39;59.64
28354;BME280;15603;50.878;8.036;2023-03-03T14:47:24;145256.03;;;8.43;60.96
28354;BME280;15603;50.878;8.036;2023-03-03T14:49:54;145185.59;;;8.13;60.19
28354;BME280;15603;50.878;8.036;2023-03-03T14:52:28;145213.50;;;8.25;60.72
28354;BME280;15603;50.878;8.036;2023-03-03T14:54:57;145155.25;;;8.00;61.26
28354;BME280;15603;50.878;8.036;2023-03-03T15:00:26;145200.16;;;8.19;61.46
28354;BME280;15603;50.878;8.036;2023-03-03T15:05:50;145194.09;;;8.17;61.30
28354;BME280;15603;50.878;8.036;2023-03-03T15:08:29;145194.09;;;8.17;61.99
28354;BME280;15603;50.878;8.036;2023-03-03T15:11:24;145185.59;;;8.13;63.34
28354;BME280;15603;50.878;8.036;2023-03-03T15:14:14;145118.84;;;7.85;63.56
28354;BME280;15603;50.878;8.036;2023-03-03T15:16:42;145106.75;;;7.80;64.45
28354;BME280;15603;50.878;8.036;2023-03-03T15:19:35;145126.16;;;7.88;66.00
28354;BME280;15603;50.878;8.036;2023-03-03T15:22:16;145105.50;;;7.79;66.31
28354;BME280;15603;50.878;8.036;2023-03-03T15:25:56;145101.91;;;7.78;66.74
28354;BME280;15603;50.878;8.036;2023-03-03T15:28:26;145104.31;;;7.79;66.79
28354;BME280;15603;50.878;8.036;2023-03-03T15:36:16;145072.75;;;7.65;67.38
28354;BME280;15603;50.878;8.036;2023-03-03T15:38:59;145063.06;;;7.61;66.87
28354;BME280;15603;50.878;8.036;2023-03-03T15:44:11;145021.84;;;7.44;68.30
28354;BME280;15603;50.878;8.036;2023-03-03T15:57:57;144986.66;;;7.29;69.79
28354;BME280;15603;50.878;8.036;2023-03-03T16:03:30;144878.78;;;6.83;70.69
28354;BME280;15603;50.878;8.036;2023-03-03T16:06:11;144900.56;;;6.93;71.69
28354;BME280;15603;50.878;8.036;2023-03-03T16:14:02;144887.22;;;6.87;72.25
28354;BME280;15603;50.878;8.036;2023-03-03T16:19:17;144830.28;;;6.63;73.57
28354;BME280;15603;50.878;8.036;2023-03-03T16:24:31;144806.06;;;6.53;74.17
28354;BME280;15603;50.878;8.036;2023-03-03T16:27:17;144772.09;;;6.38;74.37
28354;BME280;15603;50.878;8.036;2023-03-03T16:32:52;144699.41;;;6.07;75.98
28354;BME280;15603;50.878;8.036;2023-03-03T16:35:24;144722.44;;;6.17;76.02
28354;BME280;15603;50.878;8.036;2023-03-03T16:38:19;144699.41;;;6.07;77.17
28354;BME280;15603;50.878;8.036;2023-03-03T16:40:54;144653.34;;;5.88;77.63
28354;BME280;15603;50.878;8.036;2023-03-03T16:43:41;144641.22;;;5.83;79.35
28354;BME280;15603;50.878;8.036;2023-03-03T16:46:34;144617.00;;;5.73;79.53
28354;BME280;15603;50.878;8.036;2023-03-03T16:49:27;144615.81;;;5.72;80.21
28354;BME280;15603;50.878;8.036;2023-03-03T16:52:13;144516.50;;;5.30;82.19
28354;BME280;15603;50.878;8.036;2023-03-03T16:54:50;144543.13;;;5.41;81.87
28354;BME280;15603;50.878;8.036;2023-03-03T16:57:37;144520.13;;;5.31;82.80
28354;BME280;15603;50.878;8.036;2023-03-03T17:00:16;144483.81;;;5.16;83.37
28354;BME280;15603;50.878;8.036;2023-03-03T17:05:53;144406.34;;;4.83;85.63
28354;BME280;15603;50.878;8.036;2023-03-03T17:08:56;144370.03;;;4.68;86.04
28354;BME280;15603;50.878;8.036;2023-03-03T17:11:44;144353.06;;;4.61;87.04
28354;BME280;15603;50.878;8.036;2023-03-03T17:14:49;144324.06;;;4.48;87.96
28354;BME280;15603;50.878;8.036;2023-03-03T17:17:33;144287.75;;;4.33;88.74
28354;BME280;15603;50.878;8.036;2023-03-03T17:26:00;144234.50;;;4.10;89.36
28354;BME280;15603;50.878;8.036;2023-03-03T17:39:47;144025.31;;;3.22;92.17
28354;BME280;15603;50.878;8.036;2023-03-03T17:47:45;144031.34;;;3.24;94.21
28354;BME280;15603;50.878;8.036;2023-03-03T17:56:05;143958.81;;;2.93;95.54
28354;BME280;15603;50.878;8.036;2023-03-03T18:04:59;143912.88;;;2.74;96.98
28354;BME280;15603;50.878;8.036;2023-03-03T18:07:54;143876.63;;;2.59;97.40
28354;BME280;15603;50.878;8.036;2023-03-03T18:19:02;143830.72;;;2.39;98.88
28354;BME280;15603;50.878;8.036;2023-03-03T18:21:42;143812.63;;;2.31;99.68
28354;BME280;15603;50.878;8.036;2023-03-03T18:26:53;143731.69;;;1.97;99.73